Time;durP1;ratioP1;P1;durP2;ratioP2;P2;SDS_P1;SDS_P2;PMS_P1;PMS_P2;Temp;Humidity;BMP_temperature;BMP_pressure;BME280_temperature;BME280_humidity;BME280_pressure;Samples;Min_cycle;Max_cycle;Signal;HPM_P1;HPM_P2
2021/07/11 00:02:08;;;;;;;0.40;0.40;;;;;;;24.60;33.85;98186.70;128738;1096;116247;-81
2021/07/11 00:04:34;;;;;;;0.50;0.50;;;;;;;24.58;33.61;98186.31;129611;1096;22541;-81
2021/07/11 00:07:00;;;;;;;0.50;0.50;;;;;;;24.56;33.69;98180.42;128764;1096;115594;-81
2021/07/11 00:09:26;;;;;;;0.53;0.40;;;;;;;24.54;33.90;98180.06;128769;1096;115684;-81
2021/07/11 00:11:53;;;;;;;0.95;0.43;;;;;;;24.54;34.10;98182.03;128745;1096;115376;-81
2021/07/11 00:14:19;;;;;;;0.40;0.40;;;;;;;24.51;33.83;98186.37;128781;1097;116039;-80
2021/07/11 00:16:45;;;;;;;0.50;0.50;;;;;;;24.49;33.78;98175.78;129599;1095;22554;-80
2021/07/11 00:19:11;;;;;;;0.50;0.50;;;;;;;24.45;33.90;98177.78;128759;1096;116423;-80
2021/07/11 00:21:37;;;;;;;0.93;0.78;;;;;;;24.42;34.20;98173.08;129031;1095;116118;-80
2021/07/11 00:24:03;;;;;;;0.40;0.40;;;;;;;24.38;34.66;98174.28;128767;1095;116194;-80
2021/07/11 00:26:29;;;;;;;0.40;0.40;;;;;;;24.33;34.77;98164.49;128740;1096;116613;-80
2021/07/11 00:28:56;;;;;;;0.30;0.30;;;;;;;24.31;34.97;98172.36;128761;1096;115531;-81
2021/07/11 00:31:22;;;;;;;0.30;0.30;;;;;;;24.28;35.44;98167.66;129580;1095;23060;-80
2021/07/11 00:33:49;;;;;;;0.50;0.50;;;;;;;24.24;35.42;98164.16;128774;1096;115572;-80
2021/07/11 00:36:14;;;;;;;0.65;0.50;;;;;;;24.19;35.86;98167.34;128730;1096;115792;-80
2021/07/11 00:38:41;;;;;;;0.60;0.60;;;;;;;24.15;35.96;98161.88;128771;1096;115707;-80
2021/07/11 00:41:07;;;;;;;0.55;0.55;;;;;;;24.13;35.82;98157.95;128786;1096;115764;-80
2021/07/11 00:43:33;;;;;;;0.48;0.48;;;;;;;24.11;35.77;98160.34;129599;1096;23080;-80
2021/07/11 00:46:00;;;;;;;0.48;0.48;;;;;;;24.08;35.99;98156.42;128810;1095;115464;-80
2021/07/11 00:48:26;;;;;;;0.40;0.40;;;;;;;24.06;35.97;98158.81;128759;1096;116072;-81
2021/07/11 00:50:52;;;;;;;0.45;0.45;;;;;;;24.06;35.92;98167.06;128906;1096;116274;-81
2021/07/11 00:53:18;;;;;;;0.50;0.50;;;;;;;24.06;35.80;98158.81;128777;1096;115999;-81
2021/07/11 00:55:44;;;;;;;0.40;0.40;;;;;;;24.08;35.80;98155.64;129568;1096;22595;-81
2021/07/11 00:58:10;;;;;;;0.60;0.60;;;;;;;24.08;35.71;98152.89;128761;1096;115525;-81
2021/07/11 01:00:42;;;;;;;0.48;0.48;;;;;;;24.09;35.85;98146.19;128750;1096;115921;-80
2021/07/11 01:03:29;;;;;;;0.65;0.65;;;;;;;24.11;35.80;98149.34;128971;1095;115367;-76
2021/07/11 01:05:56;;;;;;;0.40;0.40;;;;;;;24.12;35.82;98143.42;128983;1095;116245;-76
2021/07/11 01:08:43;;;;;;;0.55;0.50;;;;;;;24.14;35.75;98148.53;128794;1096;115880;-76
2021/07/11 01:11:11;;;;;;;0.50;0.50;;;;;;;24.14;35.58;98143.03;129036;1095;116194;-76
2021/07/11 01:13:40;;;;;;;0.50;0.50;;;;;;;24.15;35.73;98148.12;129585;1096;22591;-76
2021/07/11 01:16:10;;;;;;;0.40;0.40;;;;;;;24.16;35.79;98148.89;129002;1096;115469;-76
2021/07/11 01:18:41;;;;;;;1.10;0.50;;;;;;;24.16;35.52;98140.64;128976;1095;115967;-76
2021/07/11 01:21:12;;;;;;;0.50;0.50;;;;;;;24.18;35.65;98135.53;128841;1096;116155;-76
2021/07/11 01:23:48;;;;;;;0.40;0.40;;;;;;;24.18;35.55;98130.03;129035;1096;116556;-76
2021/07/11 01:26:15;;;;;;;0.40;0.40;;;;;;;24.17;35.70;98129.25;129032;1095;115858;-77
2021/07/11 01:28:42;;;;;;;0.40;0.40;;;;;;;24.18;35.73;98125.30;129831;1095;22532;-78
2021/07/11 01:31:11;;;;;;;0.55;0.50;;;;;;;24.18;35.69;98130.03;128955;1095;115591;-78
2021/07/11 01:33:40;;;;;;;0.43;0.43;;;;;;;24.18;35.83;98136.31;129040;1095;115710;-77
2021/07/11 01:36:07;;;;;;;0.40;0.40;;;;;;;24.20;36.02;98131.17;128929;1095;116118;-77
2021/07/11 01:38:35;;;;;;;0.50;0.50;;;;;;;24.22;36.16;98133.53;128771;1096;116276;-77
2021/07/11 01:41:05;;;;;;;0.60;0.60;;;;;;;24.23;36.32;98121.33;128982;1095;115806;-77
2021/07/11 01:43:32;;;;;;;0.73;0.73;;;;;;;24.22;36.46;98123.30;129532;1096;22571;-77
2021/07/11 01:46:00;;;;;;;0.53;0.53;;;;;;;24.23;36.68;98132.33;128845;1096;116291;-77
2021/07/11 01:48:26;;;;;;;0.58;0.58;;;;;;;24.23;36.90;98127.61;128993;1095;116549;-77
2021/07/11 01:50:54;;;;;;;0.55;0.55;;;;;;;24.24;36.96;98123.66;128989;1095;115921;-77
2021/07/11 01:53:39;;;;;;;0.60;0.60;;;;;;;24.25;37.04;98127.22;128899;1096;116867;-77
2021/07/11 01:56:07;;;;;;;0.55;0.55;;;;;;;24.24;37.16;98134.67;128997;1096;116107;-77
2021/07/11 01:58:33;;;;;;;0.63;0.63;;;;;;;24.25;37.45;98130.75;129847;1095;23011;-77
2021/07/11 02:01:03;;;;;;;0.73;0.73;;;;;;;24.24;37.62;98129.16;129030;1096;116337;-77
2021/07/11 02:03:30;;;;;;;0.70;0.70;;;;;;;24.25;38.10;98135.48;128984;1096;116424;-77
2021/07/11 02:05:56;;;;;;;1.05;1.00;;;;;;;24.27;38.44;98124.05;129033;1095;115766;-77
2021/07/11 02:08:23;;;;;;;0.80;0.80;;;;;;;24.28;38.55;98133.86;128962;1096;117256;-77
2021/07/11 02:10:53;;;;;;;1.00;1.00;;;;;;;24.26;38.92;98128.78;128711;1096;116082;-77
2021/07/11 02:13:20;;;;;;;1.00;1.00;;;;;;;24.26;38.95;98131.53;129834;1096;22516;-77
2021/07/11 02:15:48;;;;;;;0.70;0.70;;;;;;;24.27;39.12;98129.55;129031;1095;116120;-77
2021/07/11 02:18:18;;;;;;;0.90;0.90;;;;;;;24.27;39.08;98129.55;128960;1096;115570;-77
2021/07/11 02:20:48;;;;;;;0.75;0.75;;;;;;;24.26;39.50;98126.03;129013;1096;115787;-77
2021/07/11 02:23:17;;;;;;;0.70;0.70;;;;;;;24.25;39.71;98122.50;128737;1096;115995;-77
2021/07/11 02:25:46;;;;;;;0.78;0.78;;;;;;;24.25;39.89;98133.50;129567;1096;22513;-77
2021/07/11 02:28:13;;;;;;;0.85;0.85;;;;;;;24.24;40.10;98129.16;129840;1096;22527;-77
2021/07/11 02:30:41;;;;;;;1.00;1.00;;;;;;;24.24;40.25;98128.39;129000;1096;115393;-77
2021/07/11 02:33:12;;;;;;;1.00;1.00;;;;;;;24.23;40.93;98124.08;128740;1096;116353;-77
2021/07/11 02:35:43;;;;;;;0.90;0.90;;;;;;;24.22;41.31;98139.81;128745;1095;116632;-77
2021/07/11 02:38:14;;;;;;;0.98;0.98;;;;;;;24.19;41.85;98137.09;128713;1095;115721;-77
2021/07/11 02:40:42;;;;;;;1.15;1.15;;;;;;;24.17;42.44;98133.95;129567;1096;22544;-77
2021/07/11 02:43:11;;;;;;;1.10;1.00;;;;;;;24.14;42.86;98134.78;128989;1095;115260;-77
2021/07/11 02:45:39;;;;;;;1.15;1.15;;;;;;;24.11;43.06;98132.83;129025;1096;116532;-77
2021/07/11 02:48:10;;;;;;;1.08;1.00;;;;;;;24.05;43.28;98134.44;129004;1094;115843;-77
2021/07/11 02:50:37;;;;;;;;;;;;;;;24.02;44.53;98133.30;128749;1095;116197;-77
2021/07/11 02:53:04;;;;;;;1.20;1.20;;;;;;;23.97;43.79;98131.77;129092;1095;102781;-77
2021/07/11 02:55:35;;;;;;;1.15;1.15;;;;;;;23.94;44.37;98135.32;129849;1095;22507;-77
2021/07/11 02:58:13;;;;;;;1.20;1.18;;;;;;;23.90;44.64;98134.56;128977;1096;117226;-77
2021/07/11 03:00:42;;;;;;;1.00;1.00;;;;;;;23.88;45.06;98141.64;128999;1095;117152;-77
2021/07/11 03:03:12;;;;;;;1.20;1.08;;;;;;;23.84;45.54;98133.41;128968;1095;115365;-77
2021/07/11 03:05:38;;;;;;;1.03;1.03;;;;;;;23.82;45.72;98140.52;128698;1096;115743;-77
2021/07/11 03:08:06;;;;;;;1.10;1.10;;;;;;;23.80;46.16;98138.16;128974;1095;116375;-77
2021/07/11 03:10:33;;;;;;;1.25;1.20;;;;;;;23.78;46.97;98139.73;129839;1096;22513;-77
2021/07/11 03:13:01;;;;;;;1.48;1.10;;;;;;;23.77;47.65;98144.45;129028;1095;115909;-77
2021/07/11 03:15:28;;;;;;;2.00;1.30;;;;;;;23.74;47.81;98135.06;129010;1096;116227;-77
2021/07/11 03:17:56;;;;;;;1.20;1.20;;;;;;;23.73;48.39;98140.95;128997;1096;116441;-77
2021/07/11 03:20:22;;;;;;;1.30;1.30;;;;;;;23.73;48.72;98140.95;129017;1096;116117;-77
2021/07/11 03:22:52;;;;;;;1.30;1.30;;;;;;;23.72;49.00;98144.89;129013;1096;116605;-77
2021/07/11 03:25:23;;;;;;;1.30;1.30;;;;;;;23.71;49.31;98141.36;129873;1097;22583;-77
2021/07/11 03:27:49;;;;;;;1.33;1.30;;;;;;;23.71;49.32;98143.33;129063;1095;115493;-77
2021/07/11 03:30:20;;;;;;;1.58;1.30;;;;;;;23.67;49.52;98146.10;128999;1095;116270;-77
2021/07/11 03:32:52;;;;;;;1.23;1.18;;;;;;;23.66;49.73;98136.30;128722;1096;116006;-78
2021/07/11 03:35:28;;;;;;;1.30;1.30;;;;;;;23.65;50.44;98134.68;129009;1095;115435;-76
2021/07/11 03:37:58;;;;;;;1.40;1.30;;;;;;;23.62;50.94;98140.20;128977;1095;115711;-77
2021/07/11 03:40:36;;;;;;;1.28;1.28;;;;;;;23.58;51.19;98139.44;129832;1096;22537;-77
2021/07/11 03:43:06;;;;;;;1.33;1.33;;;;;;;23.57;51.54;98135.13;129007;1096;115350;-77
2021/07/11 03:45:33;;;;;;;1.30;1.30;;;;;;;23.50;52.13;98133.20;128794;1096;116585;-77
2021/07/11 03:48:15;;;;;;;1.30;1.30;;;;;;;23.48;52.18;98128.11;129011;1096;116488;-77
2021/07/11 03:50:45;;;;;;;2.05;1.50;;;;;;;23.46;52.42;98135.99;129022;1095;116218;-77
2021/07/11 03:53:12;;;;;;;2.07;1.50;;;;;;;23.44;52.85;98132.84;129029;1096;115366;-77
2021/07/11 03:55:39;;;;;;;1.28;1.28;;;;;;;23.43;53.11;98122.27;129819;1096;22513;-77
2021/07/11 03:58:08;;;;;;;1.33;1.30;;;;;;;23.40;53.16;98110.10;129005;1096;115277;-77
2021/07/11 04:00:36;;;;;;;2.15;2.05;;;;;;;23.41;53.81;98122.66;129004;1095;116189;-77
2021/07/11 04:03:04;;;;;;;1.40;1.40;;;;;;;23.41;53.84;98113.63;128988;1096;116249;-77
2021/07/11 04:05:34;;;;;;;1.40;1.40;;;;;;;23.41;54.24;98124.63;129000;1096;116696;-77
2021/07/11 04:08:02;;;;;;;1.40;1.40;;;;;;;23.40;54.47;98117.56;129000;1096;115556;-77
2021/07/11 04:10:31;;;;;;;1.40;1.40;;;;;;;23.40;54.79;98121.09;129593;1095;22605;-77
2021/07/11 04:13:00;;;;;;;1.60;1.50;;;;;;;23.42;55.19;98121.49;128965;1096;115541;-77
2021/07/11 04:15:28;;;;;;;1.48;1.40;;;;;;;23.48;55.89;98122.62;129033;1095;116039;-77
2021/07/11 04:18:01;;;;;;;1.50;1.40;;;;;;;23.55;55.85;98119.05;128984;1096;115839;-77
2021/07/11 04:20:29;;;;;;;1.33;1.33;;;;;;;23.59;55.75;98125.31;129021;1096;116017;-77
2021/07/11 04:22:58;;;;;;;1.58;1.48;;;;;;;23.64;55.50;98133.13;128773;1096;116159;-77
2021/07/11 04:25:29;;;;;;;1.50;1.40;;;;;;;23.69;55.30;98129.19;129581;1096;22559;-77
2021/07/11 04:27:57;;;;;;;1.40;1.40;;;;;;;23.72;54.98;98131.92;128999;1095;116606;-77
2021/07/11 04:30:24;;;;;;;1.50;1.45;;;;;;;23.73;54.87;98132.70;128991;1096;115672;-77
2021/07/11 04:32:51;;;;;;;1.50;1.50;;;;;;;23.73;55.05;98138.20;128987;1095;116002;-77
2021/07/11 04:35:17;;;;;;;1.50;1.50;;;;;;;23.73;55.44;98140.95;128738;1095;116357;-77
2021/07/11 04:37:43;;;;;;;1.60;1.50;;;;;;;23.73;55.39;98140.95;129819;1095;22525;-77
2021/07/11 04:40:11;;;;;;;1.65;1.50;;;;;;;23.73;55.23;98143.70;129020;1095;115360;-77
2021/07/11 04:42:40;;;;;;;1.55;1.53;;;;;;;23.73;55.63;98146.45;128756;1095;116169;-76
2021/07/11 04:45:07;;;;;;;1.60;1.50;;;;;;;23.72;55.57;98147.64;128979;1095;116639;-78
2021/07/11 04:47:33;;;;;;;1.30;1.30;;;;;;;23.74;55.85;98146.06;129033;1096;116070;-77
2021/07/11 04:49:59;;;;;;;1.40;1.40;;;;;;;23.74;55.70;98148.03;128719;1096;116090;-77
2021/07/11 04:52:26;;;;;;;1.50;1.50;;;;;;;23.75;55.89;98149.59;129825;1095;22578;-77
2021/07/11 04:54:52;;;;;;;1.50;1.50;;;;;;;23.75;55.93;98149.59;128754;1096;115659;-77
2021/07/11 04:57:19;;;;;;;1.65;1.55;;;;;;;23.77;56.04;98155.45;129014;1096;115789;-77
2021/07/11 04:59:46;;;;;;;1.68;1.58;;;;;;;23.80;56.23;98154.66;128982;1096;116439;-77
2021/07/11 05:02:12;;;;;;;1.53;1.35;;;;;;;23.84;56.24;98162.88;128859;1096;117810;-77
2021/07/11 05:04:38;;;;;;;1.60;1.50;;;;;;;23.89;56.18;98174.22;129721;1096;22513;-77
2021/07/11 05:07:04;;;;;;;1.60;1.60;;;;;;;23.92;58.09;98167.15;128872;1096;115544;-77
2021/07/11 05:09:30;;;;;;;1.68;1.58;;;;;;;23.97;56.68;98172.21;128719;1096;116102;-77
2021/07/11 05:11:56;;;;;;;1.60;1.50;;;;;;;24.01;56.54;98170.22;129000;1096;115903;-77
2021/07/11 05:14:22;;;;;;;1.70;1.60;;;;;;;24.07;56.65;98181.59;128979;1096;115906;-77
2021/07/11 05:16:48;;;;;;;1.50;1.40;;;;;;;24.12;56.41;98173.67;128975;1096;116209;-77
2021/07/11 05:19:14;;;;;;;1.80;1.70;;;;;;;24.21;56.12;98181.50;129825;1096;22639;-77
2021/07/11 05:21:40;;;;;;;1.40;1.40;;;;;;;24.25;56.32;98176.75;128990;1096;116320;-77
2021/07/11 05:24:06;;;;;;;1.60;1.50;;;;;;;24.25;56.25;98174.00;129007;1096;115900;-77
2021/07/11 05:26:33;;;;;;;1.70;1.60;;;;;;;24.26;56.21;98178.30;128761;1096;116689;-77
2021/07/11 05:28:59;;;;;;;1.50;1.40;;;;;;;24.30;56.21;98184.56;128993;1096;116250;-77
2021/07/11 05:31:25;;;;;;;1.50;1.48;;;;;;;24.37;56.17;98189.23;129559;1096;22524;-77
2021/07/11 05:33:51;;;;;;;1.70;1.60;;;;;;;24.46;56.16;98186.81;128989;1096;115605;-77
2021/07/11 05:36:17;;;;;;;1.58;1.55;;;;;;;24.59;56.31;98192.59;129009;1096;116200;-77
2021/07/11 05:38:43;;;;;;;2.60;1.65;;;;;;;24.72;56.45;98190.91;128981;1096;116189;-77
2021/07/11 05:41:09;;;;;;;1.50;1.50;;;;;;;24.87;56.22;98183.27;128726;1096;115494;-77
2021/07/11 05:43:36;;;;;;;1.55;1.55;;;;;;;25.03;55.74;98199.23;129848;1096;23061;-77
2021/07/11 05:46:03;;;;;;;1.70;1.60;;;;;;;25.16;55.36;98195.59;128753;1096;116317;-77
2021/07/11 05:48:29;;;;;;;1.55;1.50;;;;;;;25.28;55.02;98196.25;128976;1095;117846;-77
2021/07/11 05:50:56;;;;;;;1.65;1.55;;;;;;;25.38;54.68;98198.08;129000;1096;115789;-77
2021/07/11 05:53:22;;;;;;;1.70;1.60;;;;;;;25.44;54.37;98199.98;128775;1096;116228;-76
2021/07/11 05:55:48;;;;;;;1.70;1.60;;;;;;;25.49;54.21;98203.47;128751;1096;117110;-76
2021/07/11 05:58:14;;;;;;;1.70;1.60;;;;;;;25.52;54.11;98199.89;129828;1096;22589;-77
2021/07/11 06:00:42;;;;;;;1.40;1.40;;;;;;;25.55;54.09;98207.34;129023;1096;116114;-77
2021/07/11 06:03:10;;;;;;;1.65;1.55;;;;;;;25.57;54.07;98208.47;129002;1096;116531;-77
2021/07/11 06:05:42;;;;;;;1.40;1.40;;;;;;;25.60;53.77;98213.17;128998;1096;116186;-77
2021/07/11 06:08:08;;;;;;;1.70;1.60;;;;;;;25.63;53.60;98212.34;129032;1096;115909;-77
2021/07/11 06:10:34;;;;;;;1.60;1.50;;;;;;;25.73;53.59;98215.37;129860;1096;23127;-77
2021/07/11 06:13:00;;;;;;;1.50;1.40;;;;;;;25.77;53.49;98211.36;128878;1096;116071;-77
2021/07/11 06:15:27;;;;;;;1.95;1.73;;;;;;;25.82;53.27;98215.66;128984;1096;116012;-78
2021/07/11 06:17:59;;;;;;;1.55;1.50;;;;;;;25.86;53.28;98208.92;128987;1097;115784;-78
2021/07/11 06:20:25;;;;;;;1.53;1.45;;;;;;;25.89;53.07;98216.34;128910;1096;116509;-78
2021/07/11 06:22:52;;;;;;;1.60;1.60;;;;;;;25.94;52.81;98213.14;129015;1095;115965;-78
2021/07/11 06:25:18;;;;;;;1.50;1.50;;;;;;;25.99;52.78;98208.34;129841;1096;22508;-78
2021/07/11 06:27:44;;;;;;;1.55;1.50;;;;;;;26.02;52.54;98205.55;128737;1095;116126;-77
2021/07/11 06:30:13;;;;;;;1.83;1.70;;;;;;;26.02;52.51;98208.30;129016;1095;115915;-77
2021/07/11 06:32:41;;;;;;;1.43;1.43;;;;;;;26.04;52.42;98211.41;128945;1095;115820;-77
2021/07/11 06:35:10;;;;;;;1.55;1.55;;;;;;;26.08;52.56;98217.66;128977;1096;116772;-77
2021/07/11 06:37:37;;;;;;;1.70;1.60;;;;;;;26.14;52.42;98226.27;129795;1095;22581;-77
2021/07/11 06:40:04;;;;;;;1.60;1.60;;;;;;;26.25;52.39;98210.30;128973;1096;115841;-77
2021/07/11 06:42:31;;;;;;;1.93;1.70;;;;;;;26.34;51.89;98207.03;128975;1096;116275;-78
2021/07/11 06:44:57;;;;;;;1.60;1.50;;;;;;;26.40;51.93;98206.11;129032;1096;115781;-78
2021/07/11 06:47:23;;;;;;;1.40;1.40;;;;;;;26.48;51.57;98211.55;128748;1095;116100;-78
2021/07/11 06:49:49;;;;;;;1.58;1.53;;;;;;;26.59;51.50;98210.17;128702;1096;115748;-78
2021/07/11 06:52:15;;;;;;;1.40;1.40;;;;;;;26.74;51.13;98209.94;129816;1096;22650;-78
2021/07/11 06:54:41;;;;;;;1.63;1.60;;;;;;;26.81;51.19;98207.05;128977;1094;116261;-78
2021/07/11 06:57:08;;;;;;;1.48;1.48;;;;;;;26.87;50.85;98203.36;128753;1095;115739;-90
2021/07/11 06:59:40;;;;;;;1.43;1.40;;;;;;;26.97;51.07;98209.13;128672;1096;115371;-89
2021/07/11 07:02:07;;;;;;;1.95;1.60;;;;;;;27.02;50.95;98201.13;129028;1096;115924;-89
2021/07/11 07:04:35;;;;;;;1.40;1.40;;;;;;;27.09;50.56;98202.98;129511;1095;22521;-89
2021/07/11 07:07:03;;;;;;;1.75;1.63;;;;;;;27.21;50.77;98207.13;128953;1096;114907;-87
2021/07/11 07:09:31;;;;;;;1.50;1.50;;;;;;;27.29;50.07;98212.09;128796;1095;115204;-87
2021/07/11 07:11:57;;;;;;;1.53;1.53;;;;;;;27.38;50.09;98211.52;128948;1096;115727;-87
2021/07/11 07:14:24;;;;;;;1.50;1.50;;;;;;;27.49;49.76;98208.54;129067;1096;115529;-87
2021/07/11 07:16:50;;;;;;;2.45;1.60;;;;;;;27.57;49.49;98213.48;128784;1096;115807;-87
2021/07/11 07:19:17;;;;;;;1.58;1.50;;;;;;;27.69;49.22;98216.81;129841;1096;23015;-87
2021/07/11 07:21:43;;;;;;;1.60;1.60;;;;;;;27.77;49.02;98212.71;129015;1095;117074;-87
2021/07/11 07:24:09;;;;;;;1.78;1.68;;;;;;;27.87;48.79;98209.72;128993;1096;115474;-87
2021/07/11 07:26:35;;;;;;;1.53;1.53;;;;;;;27.97;48.37;98212.66;128989;1096;115304;-87
2021/07/11 07:29:02;;;;;;;;;;;;;;;28.03;48.32;98216.49;128787;1096;115546;-86
2021/07/11 07:31:28;;;;;;;1.60;1.60;;;;;;;28.10;48.43;98217.11;129618;1095;22986;-87
2021/07/11 07:33:54;;;;;;;1.55;1.55;;;;;;;28.21;48.09;98210.53;129028;1096;114909;-87
2021/07/11 07:36:20;;;;;;;1.50;1.40;;;;;;;28.30;48.31;98208.73;128790;1096;115425;-87
2021/07/11 07:38:48;;;;;;;1.73;1.63;;;;;;;28.39;48.08;98213.69;128764;1096;115232;-87
2021/07/11 07:41:15;;;;;;;1.55;1.45;;;;;;;28.51;48.06;98217.75;128795;1095;115663;-87
2021/07/11 07:43:42;;;;;;;1.53;1.53;;;;;;;28.60;47.44;98227.00;129599;1096;22517;-87
2021/07/11 07:46:09;;;;;;;1.55;1.45;;;;;;;28.68;47.33;98227.59;128989;1097;114653;-87
2021/07/11 07:48:35;;;;;;;1.40;1.40;;;;;;;28.79;47.02;98232.88;129016;1095;115085;-87
2021/07/11 07:51:02;;;;;;;1.63;1.53;;;;;;;28.89;46.88;98237.38;128755;1096;115618;-87
2021/07/11 07:53:49;;;;;;;1.70;1.60;;;;;;;29.02;46.36;98249.33;128758;1096;114852;-88
2021/07/11 07:56:16;;;;;;;1.70;1.60;;;;;;;29.18;46.26;98245.73;128790;1096;115564;-87
2021/07/11 07:58:42;;;;;;;1.50;1.40;;;;;;;29.30;45.64;98247.00;129710;1096;22558;-87
2021/07/11 08:01:09;;;;;;;1.53;1.53;;;;;;;29.37;45.65;98243.27;128750;1095;115524;-87
2021/07/11 08:03:35;;;;;;;1.33;1.33;;;;;;;29.54;45.37;98236.42;128739;1096;115243;-87
2021/07/11 08:06:01;;;;;;;1.50;1.50;;;;;;;29.68;44.94;98240.83;128719;1096;116342;-87
2021/07/11 08:08:35;;;;;;;1.50;1.40;;;;;;;29.72;43.52;98239.49;128797;1095;116513;-87
2021/07/11 08:11:02;;;;;;;1.30;1.30;;;;;;;29.74;42.30;98227.94;128764;1096;115344;-87
2021/07/11 08:13:28;;;;;;;1.48;1.48;;;;;;;29.83;43.13;98239.96;129603;1096;22633;-87
2021/07/11 08:15:54;;;;;;;1.83;1.70;;;;;;;29.91;42.89;98236.95;128756;1096;115556;-87
2021/07/11 08:18:20;;;;;;;1.50;1.50;;;;;;;30.04;43.33;98235.75;128683;1096;115899;-87
2021/07/11 08:20:46;;;;;;;1.60;1.50;;;;;;;30.15;43.27;98249.31;128722;1096;115331;-87
2021/07/11 08:23:12;;;;;;;1.45;1.45;;;;;;;30.05;42.43;98242.08;128789;1096;115819;-87
2021/07/11 08:25:38;;;;;;;1.60;1.50;;;;;;;30.04;42.76;98235.75;129625;1096;22534;-87
2021/07/11 08:28:04;;;;;;;1.60;1.50;;;;;;;30.09;42.96;98237.19;128729;1096;115766;-87
2021/07/11 08:30:31;;;;;;;1.70;1.60;;;;;;;30.14;42.81;98238.63;128740;1095;115802;-87
2021/07/11 08:32:56;;;;;;;1.20;1.20;;;;;;;30.17;42.76;98241.33;128785;1096;115496;-87
2021/07/11 08:35:22;;;;;;;1.70;1.60;;;;;;;30.21;42.57;98238.44;128778;1096;115856;-87
2021/07/11 08:37:48;;;;;;;1.60;1.50;;;;;;;30.24;43.02;98240.34;128763;1095;116029;-87
2021/07/11 08:40:15;;;;;;;1.63;1.60;;;;;;;30.27;42.27;98234.67;129599;1096;22557;-87
2021/07/11 08:42:43;;;;;;;1.53;1.43;;;;;;;30.35;42.40;98237.23;128701;1096;116208;-87
2021/07/11 08:45:11;;;;;;;1.50;1.50;;;;;;;30.42;42.20;98234.20;128758;1095;115720;-87
2021/07/11 08:47:39;;;;;;;1.40;1.38;;;;;;;30.50;41.56;98236.31;128727;1096;115354;-87
2021/07/11 08:50:10;;;;;;;1.55;1.50;;;;;;;30.56;41.57;98228.18;128714;1096;115477;-87
2021/07/11 08:52:38;;;;;;;1.60;1.50;;;;;;;30.69;41.40;98230.92;129542;1096;22562;-88
2021/07/11 08:55:28;;;;;;;2.33;1.60;;;;;;;30.86;41.12;98228.82;128661;1096;115328;-89
2021/07/11 08:57:59;;;;;;;1.40;1.40;;;;;;;30.97;40.94;98227.22;128979;1095;115795;-89
2021/07/11 09:00:34;;;;;;;1.70;1.60;;;;;;;31.00;40.79;98226.30;128698;1096;115220;-89
2021/07/11 09:03:05;;;;;;;1.43;1.43;;;;;;;31.04;40.71;98221.39;128988;1096;115008;-89
2021/07/11 09:05:42;;;;;;;1.50;1.50;;;;;;;31.15;40.38;98225.81;128706;1095;115953;-89
2021/07/11 09:08:23;;;;;;;1.50;1.50;;;;;;;31.33;40.16;98222.43;128691;1096;115516;-89
2021/07/11 09:10:54;;;;;;;1.50;1.40;;;;;;;31.52;40.27;98215.76;128716;1096;115584;-90
2021/07/11 09:13:24;;;;;;;1.60;1.50;;;;;;;31.58;40.18;98218.72;129556;1096;23446;-89
2021/07/11 09:15:54;;;;;;;1.70;1.60;;;;;;;31.59;39.27;98206.34;128635;1097;114959;-89
2021/07/11 09:18:25;;;;;;;1.60;1.60;;;;;;;31.74;39.38;98213.70;128677;1095;115067;-89
2021/07/11 09:20:55;;;;;;;1.70;1.60;;;;;;;31.95;39.49;98214.13;128698;1096;114975;-89
2021/07/11 09:23:23;;;;;;;1.40;1.40;;;;;;;31.94;37.28;98216.14;128679;1096;116128;-89
2021/07/11 09:26:07;;;;;;;1.35;1.35;;;;;;;31.97;38.11;98209.67;128726;1096;115156;-88
2021/07/11 09:28:54;;;;;;;1.35;1.35;;;;;;;31.86;36.82;98214.09;129560;1095;22570;-89
2021/07/11 09:31:23;;;;;;;1.50;1.50;;;;;;;31.91;37.51;98205.14;129419;1096;114655;-89
2021/07/11 09:33:57;;;;;;;1.40;1.40;;;;;;;31.97;38.13;98214.47;128705;1096;115762;-89
2021/07/11 09:36:25;;;;;;;1.40;1.40;;;;;;;32.05;38.15;98212.95;128675;1096;115635;-89
2021/07/11 09:38:58;;;;;;;1.40;1.40;;;;;;;32.15;38.09;98205.42;128701;1096;115014;-89
2021/07/11 09:41:27;;;;;;;1.25;1.25;;;;;;;32.30;37.08;98203.58;128670;1097;115978;-89
2021/07/11 09:43:56;;;;;;;1.60;1.50;;;;;;;32.47;36.83;98204.91;128679;1097;116463;-89
2021/07/11 09:46:25;;;;;;;1.38;1.38;;;;;;;32.67;36.45;98212.06;129588;1096;22535;-89
2021/07/11 09:48:53;;;;;;;1.87;1.77;;;;;;;32.86;36.84;98199.69;128771;1096;114124;-89
2021/07/11 09:51:25;;;;;;;1.50;1.50;;;;;;;33.01;36.20;98207.45;128694;1096;116103;-89
2021/07/11 09:53:53;;;;;;;1.40;1.40;;;;;;;33.14;35.61;98210.88;128697;1096;115373;-89
2021/07/11 09:56:47;;;;;;;1.28;1.28;;;;;;;33.19;35.55;98205.44;128721;1096;115431;-89
2021/07/11 09:59:18;;;;;;;1.50;1.40;;;;;;;33.19;35.17;98205.44;128632;1096;115175;-89
2021/07/11 10:01:44;;;;;;;1.38;1.30;;;;;;;33.20;35.24;98195.05;129566;1096;22570;-89
2021/07/11 10:04:12;;;;;;;2.08;1.50;;;;;;;33.18;35.22;98195.52;128674;1096;114964;-89
2021/07/11 10:06:41;;;;;;;1.40;1.40;;;;;;;33.14;34.96;98197.70;128748;1095;115198;-89
2021/07/11 10:09:09;;;;;;;1.35;1.35;;;;;;;33.13;35.43;98200.94;128887;1096;116575;-89
2021/07/11 10:11:38;;;;;;;1.63;1.53;;;;;;;33.12;35.15;98197.38;128659;1096;115225;-89
2021/07/11 10:14:07;;;;;;;1.55;1.45;;;;;;;33.06;34.85;98201.27;128664;1095;114976;-89
2021/07/11 10:16:36;;;;;;;1.50;1.50;;;;;;;33.02;35.77;98201.42;129853;1095;22981;-89
2021/07/11 10:19:04;;;;;;;1.40;1.40;;;;;;;33.03;35.29;98200.18;128712;1096;114730;-89
2021/07/11 10:21:35;;;;;;;1.60;1.50;;;;;;;33.02;35.58;98201.42;128672;1096;115204;-89
2021/07/11 10:24:03;;;;;;;1.60;1.50;;;;;;;32.92;35.12;98188.68;128697;1096;115137;-89
2021/07/11 10:26:42;;;;;;;1.60;1.60;;;;;;;32.90;35.18;98188.38;128777;1096;115366;-89
2021/07/11 10:29:17;;;;;;;1.50;1.50;;;;;;;32.89;35.71;98186.81;128724;1096;115679;-89
2021/07/11 10:31:49;;;;;;;1.45;1.40;;;;;;;32.83;35.78;98188.69;129583;1096;23394;-89
2021/07/11 10:34:48;;;;;;;1.70;1.60;;;;;;;32.80;36.09;98184.03;128807;1096;114918;-89
2021/07/11 10:37:35;;;;;;;1.70;1.60;;;;;;;32.75;36.01;98180.63;129199;1096;114560;-89
2021/07/11 10:40:08;;;;;;;1.75;1.65;;;;;;;32.81;35.76;98177.98;128793;1096;114915;-89
2021/07/11 10:42:36;;;;;;;1.70;1.60;;;;;;;33.03;36.15;98175.07;128717;1096;115566;-89
2021/07/11 10:45:09;;;;;;;1.63;1.53;;;;;;;33.24;35.61;98162.94;128745;1096;114980;-89
2021/07/11 10:47:36;;;;;;;1.50;1.40;;;;;;;33.36;35.65;98166.80;128749;1096;116367;-88
2021/07/11 10:50:08;;;;;;;1.85;1.65;;;;;;;33.48;35.76;98170.67;128738;1096;115394;-89
2021/07/11 10:52:38;;;;;;;1.40;1.40;;;;;;;33.49;35.30;98174.27;129514;1097;22572;-88
2021/07/11 10:55:10;;;;;;;1.80;1.70;;;;;;;33.44;35.18;98156.84;128726;1096;114688;-89
2021/07/11 10:57:38;;;;;;;1.50;1.50;;;;;;;33.36;35.57;98161.22;128704;1096;115537;-89
2021/07/11 11:00:36;;;;;;;1.60;1.60;;;;;;;33.22;35.47;98153.52;128760;1096;115651;-89
2021/07/11 11:03:18;;;;;;;1.80;1.60;;;;;;;33.15;36.18;98154.59;128760;1096;115375;-89
2021/07/11 11:05:48;;;;;;;1.53;1.50;;;;;;;33.15;35.78;98154.59;128650;1095;115452;-89
2021/07/11 11:08:25;;;;;;;1.40;1.40;;;;;;;33.07;36.12;98155.39;128701;1096;115926;-89
2021/07/11 11:10:53;;;;;;;1.68;1.60;;;;;;;33.00;35.91;98156.47;128739;1096;115573;-89
2021/07/11 11:13:19;;;;;;;1.50;1.50;;;;;;;32.88;36.13;98169.31;129555;1095;22556;-89
2021/07/11 11:16:00;;;;;;;1.93;1.70;;;;;;;32.60;37.00;98160.16;128999;1095;114956;-89
2021/07/11 11:18:38;;;;;;;1.70;1.60;;;;;;;32.39;37.38;98159.06;128795;1095;115261;-89
2021/07/11 11:21:27;;;;;;;1.73;1.65;;;;;;;32.09;38.52;98165.45;128756;1096;115772;-89
2021/07/11 11:23:55;;;;;;;1.40;1.40;;;;;;;31.77;38.90;98173.05;128974;1095;115563;-89
2021/07/11 11:26:28;;;;;;;1.53;1.50;;;;;;;31.50;39.55;98182.03;128753;1095;115739;-90
2021/07/11 11:28:56;;;;;;;2.03;1.58;;;;;;;31.21;41.55;98182.29;128743;1096;115242;-89